Terminal Aerodrome Forecast
Issued by NWS

Home | Current Version | Previous Version | Text Only | Print | Product List | Glossary On
Versions: 1 2 3 4 5 6 7 8 9 10 11 12 13 14 15
000
FTUS46 KMTR 042323
TAFOAK
TAF
KOAK 042323Z 0500/0606 30015G20KT P6SM FEW012
     FM050400 29012KT P6SM SCT010
      TEMPO 0506/0510 BKN009
     FM051000 29008KT P6SM BKN007
     FM051700 28006KT P6SM SCT010
     FM052000 28017KT P6SM FEW012
     FM060300 28009KT P6SM FEW010=

USA.gov is the U.S. government's official web portal to all federal, state and local government web resources and services.